Latest Weather Observations for Batchelor

IDD60901

Issued at 7:41 pm CST Tuesday 26 March 2019 (issued every 10 minutes, with the page automatically refreshed every 10 minutes)

About weather observations | Map of Darwin area stations | Latest observations for Darwin area | Other Formats
Station Details ID: 014272 Name: BATCHELOR AIRPORT Lat: -13.05 Lon: 131.03 Height: 104.0 m
Data from the previous 72 hours. | See also: Recent months at Batchelor
Date/Time
CST
Temp
°C
App
Temp
°C
Dew
Point
°C
Rel
Hum
%
Delta-T
°C
Wind Press
QNH
hPa
Press
MSL
hPa
Rain since
9am
mm
Dir  Spd
km/h
Gust
km/h
Spd
kts
Gust
kts
26/07:30pm 23.8 28.7 23.1 96 0.5 WNW 2 4 1 2 1010.5 1009.8 50.4
26/07:00pm 23.9 29.3 23.2 96 0.5 CALM 0 0 0 0 1010.3 1009.6 50.4
26/06:30pm 24.0 29.4 23.3 96 0.5 CALM 0 0 0 0 1010.2 1009.5 50.2
26/06:00pm 23.7 28.6 23.0 96 0.5 WNW 2 4 1 2 1009.5 1008.8 50.2
26/05:30pm 23.6 27.8 23.1 97 0.3 W 6 7 3 4 1009.1 1008.4 50.2
26/05:00pm 23.4 27.3 22.9 97 0.3 W 7 11 4 6 1008.7 1008.0 50.2
26/04:30pm 23.4 27.3 22.9 97 0.3 W 7 15 4 8 1008.8 1008.1 50.2
26/04:00pm 23.6 26.8 23.1 97 0.3 W 11 19 6 10 1009.0 1008.3 50.0
26/03:30pm 23.5 27.4 23.0 97 0.3 W 7 13 4 7 1009.5 1008.8 48.4
26/03:00pm 23.5 27.4 23.0 97 0.3 WNW 7 9 4 5 1009.7 1009.0 47.6
26/02:30pm 23.1 27.0 22.6 97 0.3 NW 6 7 3 4 1009.7 1009.0 46.8
26/02:00pm 23.0 26.6 22.3 96 0.5 W 7 13 4 7 1010.5 1009.8 45.4
26/01:30pm 23.9 25.9 23.0 95 0.6 SE 17 39 9 21 1011.1 1010.4 28.2
26/01:00pm 27.2 30.2 22.6 76 3.1 SSW 11 22 6 12 1010.6 1009.9 6.4
26/12:30pm 30.3 34.0 25.1 73 3.7 W 15 26 8 14 1009.7 1009.0 6.4
26/12:00pm 30.9 35.0 25.7 74 3.7 WNW 15 28 8 15 1009.9 1009.2 6.4
26/11:30am 29.5 33.5 24.4 74 3.6 WNW 11 19 6 10 1011.2 1010.5 6.4
26/11:00am 28.4 33.0 24.8 81 2.5 W 9 15 5 8 1011.0 1010.3 6.4
26/10:30am 27.9 31.7 25.3 86 1.8 W 15 24 8 13 1011.1 1010.4 6.4
26/10:00am 26.8 30.7 24.8 89 1.4 WNW 13 22 7 12 1011.3 1010.6 6.4
26/09:30am 25.7 29.6 24.3 92 1.0 NW 11 17 6 9 1011.5 1010.8 6.4
26/09:00am 25.9 30.8 24.7 93 0.8 S 7 13 4 7 1012.2 1011.5 6.8
26/08:30am 27.0 32.3 25.8 93 0.8 ESE 9 13 5 7 1011.9 1011.2 1.2
26/08:00am 26.8 32.9 25.6 93 0.8 W 4 7 2 4 1011.0 1010.3 1.2
26/07:30am 26.4 32.0 25.4 94 0.7 W 6 9 3 5 1010.6 1009.9 1.2
26/07:00am 26.3 31.6 25.3 94 0.7 WNW 7 11 4 6 1010.2 1009.5 1.2
26/06:30am 26.3 31.8 25.3 94 0.7 WNW 6 9 3 5 1010.3 1009.6 1.2
26/06:00am 26.3 31.6 25.3 94 0.7 WNW 7 11 4 6 1010.2 1009.5 1.2
26/05:30am 26.2 31.6 25.2 94 0.7 WNW 6 7 3 4 1010.0 1009.3 1.2
26/05:00am 26.1 31.5 25.1 94 0.7 NW 6 7 3 4 1009.9 1009.2 1.2
26/04:30am 26.6 32.0 25.4 93 0.8 WNW 7 11 4 6 1009.7 1009.0 1.2
26/04:00am 26.5 31.8 25.3 93 0.8 WNW 7 11 4 6 1009.5 1008.8 1.2
26/03:30am 26.4 31.7 25.2 93 0.8 NW 7 11 4 6 1009.6 1008.9 1.2
26/03:00am 26.1 31.9 25.1 94 0.7 W 4 6 2 3 1009.7 1009.0 1.2
26/02:30am 26.2 31.5 25.0 93 0.8 W 6 11 3 6 1009.8 1009.1 1.2
26/02:00am 26.5 31.3 25.1 92 1.0 WNW 9 17 5 9 1009.9 1009.2 1.2
26/01:30am 26.2 31.3 25.0 93 0.8 NW 7 9 4 5 1010.1 1009.4 1.2
26/01:00am 26.3 31.6 24.9 92 1.0 NW 6 9 3 5 1010.4 1009.7 1.2
26/12:30am 26.4 32.0 24.8 91 1.1 NW 4 6 2 3 1010.8 1010.1 1.2
26/12:00am 26.7 32.0 24.9 90 1.3 WNW 6 7 3 4 1011.1 1010.4 1.2
 
Date/Time
CST
Temp
°C
App
Temp
°C
Dew
Point
°C
Rel
Hum
%
Delta-T
°C
Wind Press
QNH
hPa
Press
MSL
hPa
Rain since
9am
mm
Dir  Spd
km/h
Gust
km/h
Spd
kts
Gust
kts
25/11:30pm 26.7 31.8 24.9 90 1.3 NW 7 9 4 5 1011.2 1010.5 1.2
25/11:00pm 26.8 32.0 24.8 89 1.4 WNW 6 7 3 4 1011.2 1010.5 1.2
25/10:30pm 27.0 32.3 25.0 89 1.4 NW 6 9 3 5 1010.9 1010.2 1.2
25/10:00pm 27.3 32.5 25.1 88 1.5 WNW 7 11 4 6 1010.8 1010.1 1.2
25/09:30pm 27.1 32.4 24.9 88 1.5 WNW 6 7 3 4 1010.6 1009.9 1.2
25/09:00pm 27.4 33.4 24.8 86 1.8 WSW 2 4 1 2 1010.8 1010.1 1.2
25/08:30pm 27.8 33.5 25.0 85 2.0 W 4 6 2 3 1010.5 1009.8 1.2
25/08:00pm 27.9 33.7 25.1 85 2.0 W 4 6 2 3 1009.9 1009.2 1.2
25/07:30pm 28.4 33.7 25.2 83 2.3 W 7 15 4 8 1009.8 1009.1 1.2
25/07:00pm 28.4 33.4 25.4 84 2.1 WNW 9 15 5 8 1009.0 1008.3 1.2
25/06:30pm 28.1 33.2 25.5 86 1.8 WNW 9 15 5 8 1008.4 1007.7 1.2
25/06:00pm 29.8 34.7 25.3 77 3.2 WNW 9 17 5 9 1008.5 1007.8 0.2
25/05:30pm 30.2 34.5 25.5 76 3.3 WNW 13 22 7 12 1008.1 1007.4 0.2
25/05:00pm 30.6 34.3 25.2 73 3.8 NW 15 22 8 12 1007.6 1006.9 0.2
25/04:30pm 30.9 35.2 25.5 73 3.8 NW 13 19 7 10 1007.5 1006.8 0.2
25/04:00pm 31.3 35.3 25.6 71 4.1 WNW 15 22 8 12 1007.5 1006.8 0.2
25/03:30pm 31.7 36.0 25.5 69 4.4 NW 13 20 7 11 1007.8 1007.1 0.2
25/03:00pm 32.4 36.0 25.0 65 5.2 NW 15 20 8 11 1007.8 1007.1 0.2
25/02:30pm 33.0 37.2 25.3 64 5.5 WNW 13 20 7 11 1008.1 1007.4 0.2
25/02:00pm 33.2 38.7 26.7 68 4.7 NW 11 15 6 8 1008.2 1007.5 0.2
25/01:30pm 30.1 34.0 25.4 76 3.3 NW 15 24 8 13 1009.0 1008.3 0.2
25/01:00pm 31.9 34.6 22.9 59 6.2 W 13 24 7 13 1009.4 1008.7 0.0
25/12:30pm 32.3 36.6 24.9 65 5.2 W 11 17 6 9 1009.8 1009.1 0.0
25/12:00pm 32.5 36.6 24.5 62 5.6 W 11 17 6 9 1009.9 1009.2 0.0
25/11:30am 32.1 36.4 24.9 65 5.1 W 11 20 6 11 1010.3 1009.6 0.0
25/11:00am 31.6 35.9 25.5 70 4.3 WNW 13 22 7 12 1010.4 1009.7 0.0
25/10:30am 31.0 35.5 25.8 74 3.7 NW 13 20 7 11 1010.5 1009.8 0.0
25/10:00am 30.5 35.8 26.4 79 2.9 WNW 11 19 6 10 1010.8 1010.1 0.0
25/09:30am 29.2 35.1 26.2 84 2.1 WNW 7 15 4 8 1010.8 1010.1 0.0
25/09:00am 27.8 34.1 26.0 90 1.3 W 4 7 2 4 1010.8 1010.1 0.2
25/08:30am 26.8 33.4 25.8 94 0.7 W 2 4 1 2 1010.7 1010.0 0.2
25/08:00am 26.1 32.0 25.4 96 0.5 WSW 4 6 2 3 1010.4 1009.7 0.2
25/07:30am 25.7 31.1 25.2 97 0.4 W 6 9 3 5 1010.0 1009.3 0.2
25/07:00am 25.1 30.2 24.6 97 0.3 NNW 6 7 3 4 1010.1 1009.4 0.2
25/06:30am 24.8 30.7 24.1 96 0.5 CALM 0 0 0 0 1009.5 1008.8 0.2
25/06:00am 24.9 30.9 24.2 96 0.5 CALM 0 0 0 0 1009.2 1008.5 0.2
25/05:30am 25.0 30.6 24.3 96 0.5 NW 2 4 1 2 1008.7 1008.0 0.2
25/05:00am 25.1 30.0 24.4 96 0.5 WNW 6 9 3 5 1008.2 1007.5 0.2
25/04:30am 25.2 30.1 24.3 95 0.6 NW 6 9 3 5 1007.8 1007.1 0.2
25/04:00am 25.1 29.9 24.4 96 0.5 WNW 7 9 4 5 1007.6 1006.9 0.2
25/03:30am 25.0 29.6 24.1 95 0.6 WNW 7 15 4 8 1007.7 1007.0 0.2
25/03:00am 25.1 29.4 24.2 95 0.6 WNW 9 15 5 8 1007.7 1007.0 0.2
25/02:30am 25.2 29.1 24.2 94 0.7 WNW 11 17 6 9 1008.0 1007.3 0.2
25/02:00am 25.0 29.5 24.0 94 0.7 NW 7 11 4 6 1008.5 1007.8 0.2
25/01:30am 25.2 29.5 24.2 94 0.7 WNW 9 13 5 7 1009.1 1008.4 0.2
25/01:00am 24.3 28.5 23.4 95 0.6 NW 7 11 4 6 1009.6 1008.9 0.2
25/12:30am 24.0 28.6 23.1 95 0.6 WNW 4 6 2 3 1010.1 1009.4 0.2
25/12:00am 24.1 28.7 23.1 94 0.7 WNW 4 6 2 3 1010.2 1009.5 0.2
 
Date/Time
CST
Temp
°C
App
Temp
°C
Dew
Point
°C
Rel
Hum
%
Delta-T
°C
Wind Press
QNH
hPa
Press
MSL
hPa
Rain since
9am
mm
Dir  Spd
km/h
Gust
km/h
Spd
kts
Gust
kts
24/11:30pm 24.0 28.5 23.0 94 0.7 NW 4 4 2 2 1009.8 1009.1 0.2
24/11:00pm 24.1 28.7 23.1 94 0.7 WNW 4 6 2 3 1009.5 1008.8 0.2
24/10:30pm 24.2 28.6 22.8 92 0.9 NW 4 6 2 3 1009.4 1008.7 0.2
24/10:00pm 24.3 28.2 22.9 92 0.9 NW 7 9 4 5 1009.4 1008.7 0.2
24/09:30pm 24.5 28.0 22.8 90 1.2 NW 9 13 5 7 1009.0 1008.3 0.2
24/09:00pm 24.9 27.3 23.0 89 1.3 NW 15 22 8 12 1008.7 1008.0 0.2
24/08:30pm 25.1 28.8 23.3 90 1.2 WNW 9 15 5 8 1008.5 1007.8 0.2
24/08:00pm 25.4 28.5 23.5 89 1.3 NW 13 20 7 11 1008.2 1007.5 0.2
24/07:30pm 25.6 28.7 23.5 88 1.4 NW 13 20 7 11 1007.7 1007.0 0.2
24/07:00pm 26.0 28.6 23.9 88 1.4 NW 17 24 9 13 1007.7 1007.0 0.2
24/06:30pm 26.1 29.7 23.8 87 1.6 NW 11 17 6 9 1007.5 1006.8 0.2
24/06:00pm 26.4 30.4 23.7 85 1.9 NW 9 13 5 7 1007.1 1006.4 0.2
24/05:30pm 26.6 30.3 23.9 85 1.9 NW 11 20 6 11 1007.1 1006.4 0.2
24/05:00pm 26.8 30.3 23.5 82 2.3 NW 11 19 6 10 1006.9 1006.2 0.2
24/04:30pm 27.0 30.1 23.5 81 2.4 NW 13 19 7 10 1007.1 1006.4 0.2
24/04:00pm 27.2 30.8 23.7 81 2.4 NW 11 15 6 8 1007.1 1006.4 0.2
24/03:30pm 26.6 30.7 23.9 85 1.9 NW 9 13 5 7 1007.1 1006.4 0.2
24/03:00pm 26.2 30.0 23.5 85 1.9 NW 9 17 5 9 1006.7 1006.0 0.2
24/02:30pm 26.0 29.2 23.1 84 2.0 NW 11 19 6 10 1006.5 1005.8 0.2
24/02:00pm 25.9 28.7 23.6 87 1.6 NNW 15 22 8 12 1007.6 1006.9 0.2
24/01:30pm 27.4 30.5 24.1 82 2.3 WNW 15 24 8 13 1007.6 1006.9 0.2
24/01:00pm 31.6 35.8 24.7 67 4.9 WNW 11 30 6 16 1007.2 1006.5 0.2
24/12:30pm 30.9 35.5 25.9 74 3.6 NW 13 20 7 11 1008.0 1007.3 0.2
24/12:00pm 30.4 34.8 25.7 76 3.3 WNW 13 20 7 11 1008.4 1007.7 0.2
24/11:30am 30.1 34.2 25.2 75 3.5 WNW 13 17 7 9 1008.6 1007.9 0.2
24/11:00am 29.0 33.9 24.6 77 3.1 WNW 7 13 4 7 1008.9 1008.2 0.2
24/10:30am 27.8 31.9 24.0 80 2.6 NW 9 13 5 7 1009.0 1008.3 0.2
24/10:00am 27.0 31.2 24.1 84 2.0 NNW 9 11 5 6 1009.0 1008.3 0.2
24/09:30am 26.6 31.2 24.1 86 1.7 NNW 7 9 4 5 1009.2 1008.5 0.0
24/09:00am 25.9 30.0 23.2 85 1.8 NNW 7 9 4 5 1008.7 1008.0 1.2
24/08:30am 24.9 29.5 23.1 90 1.2 NW 4 6 2 3 1008.3 1007.6 1.2
24/08:00am 24.3 28.9 23.1 93 0.8 NW 4 6 2 3 1007.8 1007.1 1.2
24/07:30am 23.9 28.6 22.7 93 0.8 NW 2 4 1 2 1007.7 1007.0 1.2
24/07:00am 24.0 28.0 22.8 93 0.8 NW 6 9 3 5 1007.5 1006.8 1.2
24/06:30am 24.4 28.8 22.8 91 1.1 NW 4 6 2 3 1006.7 1006.0 1.2
24/06:00am 24.9 29.1 23.1 90 1.2 NW 6 9 3 5 1006.0 1005.2 1.2
24/05:30am 25.3 30.2 23.7 91 1.1 W 4 9 2 5 1005.5 1004.7 1.2
24/05:00am 26.2 31.8 24.2 89 1.4 WSW 2 6 1 3 1005.3 1004.5 1.2
24/04:30am 26.6 32.3 25.0 91 1.1 W 4 7 2 4 1005.2 1004.4 1.2
24/04:00am 27.2 31.3 25.2 89 1.4 WNW 13 19 7 10 1005.1 1004.3 1.2
24/03:30am 27.2 32.1 25.2 89 1.4 WNW 9 15 5 8 1005.5 1004.7 1.2
24/03:00am 27.3 31.5 25.3 89 1.4 WNW 13 24 7 13 1005.6 1004.8 1.2
24/02:30am 27.1 31.0 25.5 91 1.1 WNW 15 26 8 14 1006.0 1005.2 1.2
24/02:00am 26.5 30.7 25.3 93 0.8 WNW 13 22 7 12 1006.1 1005.3 1.2
24/01:30am 25.6 30.2 24.7 95 0.6 WNW 9 13 5 7 1005.8 1005.0 1.2
24/01:00am 25.1 29.4 24.2 95 0.6 WNW 9 15 5 8 1006.0 1005.2 1.2
24/12:30am 25.1 29.0 24.2 95 0.6 NW 11 17 6 9 1006.4 1005.7 1.2
24/12:00am 25.1 29.3 24.1 94 0.7 NW 9 15 5 8 1006.5 1005.8 1.2
 
Date/Time
CST
Temp
°C
App
Temp
°C
Dew
Point
°C
Rel
Hum
%
Delta-T
°C
Wind Press
QNH
hPa
Press
MSL
hPa
Rain since
9am
mm
Dir  Spd
km/h
Gust
km/h
Spd
kts
Gust
kts
23/11:30pm 25.0 28.8 24.0 94 0.7 NW 11 17 6 9 1006.8 1006.1 1.2
23/11:00pm 24.5 28.1 23.1 92 1.0 NW 9 15 5 8 1007.4 1006.7 1.2
23/10:30pm 24.6 28.4 23.4 93 0.8 WNW 9 15 5 8 1007.8 1007.1 1.2
23/10:00pm 24.6 28.4 23.4 93 0.8 WNW 9 15 5 8 1007.3 1006.6 1.2
23/09:30pm 24.6 28.3 23.2 92 1.0 WNW 9 13 5 7 1007.4 1006.7 1.2
23/09:00pm 24.4 28.1 23.2 93 0.8 WNW 9 15 5 8 1006.7 1006.0 1.2
23/08:30pm 24.3 27.9 23.1 93 0.8 WNW 9 13 5 7 1006.0 1005.2 1.2
23/08:00pm 24.4 28.1 23.2 93 0.8 WNW 9 17 5 9 1006.1 1005.3 1.2

Latest Capital City Observations: Canberra | Sydney | Melbourne | Brisbane | Adelaide | Perth | Hobart | Darwin

Other formats

Comma delimited format used in spreadsheet applications
http://www.bom.gov.au/fwo/IDD60901/IDD60901.94125.axf

JavaScript Object Notation format (JSON) in row-major order
http://www.bom.gov.au/fwo/IDD60901/IDD60901.94125.json

Data quality

Most of these data are generated automatically and are frequently updated. Quality checks on data are not normally performed. It is possible for incorrect values to appear. Refer to information at About Latest Weather Observations and please check the disclaimer before using these data.